Time;durP1;ratioP1;P1;durP2;ratioP2;P2;SDS_P1;SDS_P2;PMS_P1;PMS_P2;Temp;Humidity;BMP_temperature;BMP_pressure;BME280_temperature;BME280_humidity;BME280_pressure;Samples;Min_cycle;Max_cycle;Signal;HPM_P1;HPM_P2
2021/05/25 00:01:48;;;;;;;1.63;1.00;;;;;;;;;;6126993;23;20001;-80
2021/05/25 00:04:33;;;;;;;4.75;1.20;;;;;;;;;;6148979;23;20036;-79
2021/05/25 00:07:18;;;;;;;2.25;0.95;;;;;;;;;;6146875;23;20377;-80
2021/05/25 00:10:05;;;;;;;1.63;0.95;;;;;;;;;;6148247;23;19997;-80
2021/05/25 00:12:50;;;;;;;2.13;1.10;;;;;;;;;;6147493;23;20032;-79
2021/05/25 00:15:36;;;;;;;5.05;1.30;;;;;;;;;;6148075;23;20008;-80
2021/05/25 00:18:21;;;;;;;3.70;0.98;;;;;;;;;;6147104;23;20021;-80
2021/05/25 00:21:07;;;;;;;1.30;1.02;;;;;;;;;;6148890;23;19997;-81
2021/05/25 00:23:52;;;;;;;2.85;0.82;;;;;;;;;;6147458;23;20505;-81
2021/05/25 00:26:37;;;;;;;1.65;0.90;;;;;;;;;;6168864;23;20696;-82
2021/05/25 00:29:24;;;;;;;3.08;1.50;;;;;;;;;;6147378;23;20008;-81
2021/05/25 00:32:09;;;;;;;1.65;0.90;;;;;;;;;;6128175;23;20541;-81
2021/05/25 00:34:54;;;;;;;3.28;1.00;;;;;;;;;;6169743;23;20650;-81
2021/05/25 00:37:40;;;;;;;3.03;0.88;;;;;;;;;;6170443;23;20342;-81
2021/05/25 00:40:25;;;;;;;2.17;1.13;;;;;;;;;;6148467;23;20009;-81
2021/05/25 00:43:10;;;;;;;3.00;1.52;;;;;;;;;;6147596;23;20002;-81
2021/05/25 00:45:56;;;;;;;2.53;1.00;;;;;;;;;;6147829;23;20104;-81
2021/05/25 00:48:42;;;;;;;1.00;0.80;;;;;;;;;;6168008;23;20029;-81
2021/05/25 00:51:27;;;;;;;3.42;1.15;;;;;;;;;;6148248;23;20017;-80
2021/05/25 00:54:12;;;;;;;2.85;1.50;;;;;;;;;;6146773;23;20547;-80
2021/05/25 00:56:58;;;;;;;3.80;1.13;;;;;;;;;;6168634;23;20064;-79
2021/05/25 00:59:43;;;;;;;3.58;1.02;;;;;;;;;;6147215;23;19998;-80
2021/05/25 01:02:28;;;;;;;2.85;1.00;;;;;;;;;;6148854;23;20004;-80
2021/05/25 01:05:14;;;;;;;0.82;0.80;;;;;;;;;;6146973;23;20470;-78
2021/05/25 01:08:00;;;;;;;1.58;1.45;;;;;;;;;;6169142;23;20505;-78
2021/05/25 01:10:50;;;;;;;1.90;1.08;;;;;;;;;;6142561;23;20048;-79
2021/05/25 01:13:51;;;;;;;2.65;0.93;;;;;;;;;;6148201;23;20001;-79
2021/05/25 01:16:36;;;;;;;2.15;0.80;;;;;;;;;;6149663;23;19998;-80
2021/05/25 01:19:21;;;;;;;1.30;0.93;;;;;;;;;;6148812;23;20009;-79
2021/05/25 01:22:06;;;;;;;4.30;1.17;;;;;;;;;;6150702;23;20019;-80
2021/05/25 01:24:52;;;;;;;4.88;1.17;;;;;;;;;;6149412;23;20749;-81
2021/05/25 01:27:37;;;;;;;1.92;1.10;;;;;;;;;;6170913;23;20056;-80
2021/05/25 01:30:23;;;;;;;2.60;1.05;;;;;;;;;;6149109;23;20029;-80
2021/05/25 01:33:09;;;;;;;4.53;1.25;;;;;;;;;;6150389;23;20005;-79
2021/05/25 01:35:54;;;;;;;2.60;0.98;;;;;;;;;;6148870;23;20080;-80
2021/05/25 01:38:40;;;;;;;3.95;0.90;;;;;;;;;;6149197;23;20044;-81
2021/05/25 01:41:25;;;;;;;4.30;1.20;;;;;;;;;;6149102;23;20009;-81
2021/05/25 01:44:10;;;;;;;3.92;1.17;;;;;;;;;;6150116;23;20304;-81
2021/05/25 01:46:55;;;;;;;4.88;1.10;;;;;;;;;;6149063;23;20029;-80
2021/05/25 01:49:41;;;;;;;5.53;1.25;;;;;;;;;;6171021;23;20631;-80
2021/05/25 01:52:26;;;;;;;1.77;0.90;;;;;;;;;;6147929;23;19997;-80
2021/05/25 01:55:11;;;;;;;3.10;1.13;;;;;;;;;;6170991;23;20508;-82
2021/05/25 01:57:57;;;;;;;4.68;1.58;;;;;;;;;;6147992;23;20003;-81
2021/05/25 02:00:44;;;;;;;2.45;1.00;;;;;;;;;;6171384;23;20052;-82
2021/05/25 02:03:29;;;;;;;3.50;1.20;;;;;;;;;;6171080;23;20445;-82
2021/05/25 02:06:14;;;;;;;2.20;1.05;;;;;;;;;;6169241;23;19997;-80
2021/05/25 02:09:00;;;;;;;3.38;1.13;;;;;;;;;;6150163;23;20013;-80
2021/05/25 02:11:45;;;;;;;2.53;1.05;;;;;;;;;;6148023;23;20002;-81
2021/05/25 02:14:30;;;;;;;4.85;1.25;;;;;;;;;;6170754;23;20311;-79
2021/05/25 02:17:15;;;;;;;4.07;1.30;;;;;;;;;;6169448;23;20004;-79
2021/05/25 02:20:01;;;;;;;4.28;1.65;;;;;;;;;;6170406;23;20021;-80
2021/05/25 02:22:46;;;;;;;3.97;2.83;;;;;;;;;;6148627;23;20052;-80
2021/05/25 02:25:31;;;;;;;6.43;1.30;;;;;;;;;;6170747;23;20002;-80
2021/05/25 02:28:16;;;;;;;5.30;1.45;;;;;;;;;;6147962;23;20006;-80
2021/05/25 02:31:02;;;;;;;4.50;1.55;;;;;;;;;;6149869;23;20414;-80
2021/05/25 02:33:47;;;;;;;6.32;1.90;;;;;;;;;;6149218;23;20308;-80
2021/05/25 02:36:32;;;;;;;4.75;0.98;;;;;;;;;;6170862;23;20334;-80
2021/05/25 02:39:18;;;;;;;2.13;0.93;;;;;;;;;;6148132;23;20135;-81
2021/05/25 02:42:04;;;;;;;3.15;1.00;;;;;;;;;;6150154;23;20009;-78
2021/05/25 02:44:49;;;;;;;4.60;1.20;;;;;;;;;;6148933;23;20005;-80
2021/05/25 02:47:34;;;;;;;4.40;1.15;;;;;;;;;;6150065;23;20012;-80
2021/05/25 02:50:20;;;;;;;5.95;1.10;;;;;;;;;;6149319;23;20037;-81
2021/05/25 02:53:05;;;;;;;7.15;1.42;;;;;;;;;;6169350;23;20005;-82
2021/05/25 02:55:51;;;;;;;6.60;1.00;;;;;;;;;;6149171;23;20002;-80
2021/05/25 02:58:36;;;;;;;3.78;1.08;;;;;;;;;;6168952;23;20001;-81
2021/05/25 03:01:21;;;;;;;3.53;0.90;;;;;;;;;;6149971;23;20374;-80
2021/05/25 03:04:06;;;;;;;4.45;1.10;;;;;;;;;;6148339;23;19994;-79
2021/05/25 03:06:52;;;;;;;7.35;1.30;;;;;;;;;;6148823;23;20068;-81
2021/05/25 03:09:37;;;;;;;3.92;1.02;;;;;;;;;;6147998;23;20055;-80
2021/05/25 03:12:22;;;;;;;4.18;1.00;;;;;;;;;;6149533;23;20001;-81
2021/05/25 03:15:09;;;;;;;3.42;1.05;;;;;;;;;;6168934;23;19998;-81
2021/05/25 03:17:55;;;;;;;1.88;1.10;;;;;;;;;;6150153;23;20046;-81
2021/05/25 03:20:43;;;;;;;2.28;0.95;;;;;;;;;;6147641;23;20048;-80
2021/05/25 03:23:28;;;;;;;3.83;1.17;;;;;;;;;;6170260;23;20053;-81
2021/05/25 03:26:13;;;;;;;6.72;1.33;;;;;;;;;;6169369;23;20001;-81
2021/05/25 03:28:59;;;;;;;4.13;0.95;;;;;;;;;;6149241;23;20002;-80
2021/05/25 03:31:44;;;;;;;2.20;1.02;;;;;;;;;;6169879;23;20053;-80
2021/05/25 03:34:29;;;;;;;3.42;0.80;;;;;;;;;;6169239;23;20005;-79
2021/05/25 03:37:14;;;;;;;4.53;1.05;;;;;;;;;;6169155;23;20001;-79
2021/05/25 03:40:00;;;;;;;3.40;1.23;;;;;;;;;;6147147;23;20001;-79
2021/05/25 03:42:46;;;;;;;12.63;1.85;;;;;;;;;;6149294;23;20028;-78
2021/05/25 03:45:32;;;;;;;5.97;1.20;;;;;;;;;;6147342;23;20437;-82
2021/05/25 03:48:17;;;;;;;4.10;1.13;;;;;;;;;;6169700;23;20005;-80
2021/05/25 03:51:02;;;;;;;2.58;0.82;;;;;;;;;;6147255;23;20044;-81
2021/05/25 03:53:50;;;;;;;3.78;0.98;;;;;;;;;;6169918;23;20072;-80
2021/05/25 03:56:48;;;;;;;4.13;0.93;;;;;;;;;;6168072;23;19998;-80
2021/05/25 03:59:33;;;;;;;3.50;1.08;;;;;;;;;;6148825;23;20641;-80
2021/05/25 04:02:18;;;;;;;3.33;1.15;;;;;;;;;;6147778;23;20002;-80
2021/05/25 04:05:04;;;;;;;3.67;0.82;;;;;;;;;;6149964;23;20001;-80
2021/05/25 04:07:50;;;;;;;1.70;0.88;;;;;;;;;;6167565;23;20045;-81
2021/05/25 04:10:35;;;;;;;2.47;1.00;;;;;;;;;;6169618;23;20008;-82
2021/05/25 04:13:21;;;;;;;1.73;0.80;;;;;;;;;;6148422;23;20012;-82
2021/05/25 04:16:12;;;;;;;2.70;1.00;;;;;;;;;;6148390;23;20032;-81
2021/05/25 04:18:57;;;;;;;2.25;0.90;;;;;;;;;;6169146;23;20025;-81
2021/05/25 04:21:42;;;;;;;1.77;1.00;;;;;;;;;;6147129;23;20800;-81
2021/05/25 04:24:27;;;;;;;7.72;1.30;;;;;;;;;;6148955;23;20089;-81
2021/05/25 04:27:12;;;;;;;3.80;1.45;;;;;;;;;;6168684;23;19994;-81
2021/05/25 04:29:58;;;;;;;2.58;0.60;;;;;;;;;;6149730;23;19994;-81
2021/05/25 04:32:43;;;;;;;4.25;1.10;;;;;;;;;;6147419;23;20005;-82
2021/05/25 04:35:28;;;;;;;3.70;0.85;;;;;;;;;;6148951;23;20005;-81
2021/05/25 04:38:14;;;;;;;2.92;0.93;;;;;;;;;;6146428;23;20081;-80
2021/05/25 04:40:59;;;;;;;2.13;0.80;;;;;;;;;;6169285;23;20071;-80
2021/05/25 04:43:44;;;;;;;2.20;1.00;;;;;;;;;;6147018;23;20029;-80
2021/05/25 04:46:30;;;;;;;2.10;0.70;;;;;;;;;;6148858;23;20012;-80
2021/05/25 04:49:15;;;;;;;1.42;0.75;;;;;;;;;;6148880;23;19997;-83
2021/05/25 04:52:00;;;;;;;3.10;1.30;;;;;;;;;;6149396;23;20004;-83
2021/05/25 04:54:45;;;;;;;1.65;0.68;;;;;;;;;;6170012;23;20005;-82
2021/05/25 04:57:31;;;;;;;1.83;0.80;;;;;;;;;;6149445;23;20025;-81
2021/05/25 05:00:17;;;;;;;1.35;0.70;;;;;;;;;;6149348;23;20503;-83
2021/05/25 05:03:03;;;;;;;2.88;1.00;;;;;;;;;;6148103;23;20071;-81
2021/05/25 05:05:48;;;;;;;4.70;0.93;;;;;;;;;;6148618;23;19998;-81
2021/05/25 05:08:33;;;;;;;1.33;0.80;;;;;;;;;;6146926;23;20001;-81
2021/05/25 05:11:18;;;;;;;2.75;0.70;;;;;;;;;;6169008;23;20001;-80
2021/05/25 05:14:04;;;;;;;1.05;0.70;;;;;;;;;;6147168;23;19997;-81
2021/05/25 05:16:49;;;;;;;3.00;0.73;;;;;;;;;;6169411;23;20017;-81
2021/05/25 05:19:34;;;;;;;0.93;0.77;;;;;;;;;;6147284;23;20013;-81
2021/05/25 05:22:19;;;;;;;2.33;0.90;;;;;;;;;;6147782;23;20418;-81
2021/05/25 05:25:05;;;;;;;5.28;1.15;;;;;;;;;;6141859;23;20001;-82
2021/05/25 05:27:50;;;;;;;2.92;0.80;;;;;;;;;;6169098;23;20036;-81
2021/05/25 05:30:36;;;;;;;3.40;1.00;;;;;;;;;;6146878;23;20044;-80
2021/05/25 05:33:21;;;;;;;2.25;1.10;;;;;;;;;;6148910;23;20005;-81
2021/05/25 05:36:06;;;;;;;1.92;1.00;;;;;;;;;;6146491;23;20037;-80
2021/05/25 05:38:51;;;;;;;2.22;0.90;;;;;;;;;;6147294;23;20002;-79
2021/05/25 05:41:37;;;;;;;3.30;0.88;;;;;;;;;;6146683;23;19997;-80
2021/05/25 05:44:22;;;;;;;4.35;1.15;;;;;;;;;;6148323;23;20001;-81
2021/05/25 05:47:07;;;;;;;4.88;0.80;;;;;;;;;;6149256;23;20021;-82
2021/05/25 05:49:52;;;;;;;3.30;0.93;;;;;;;;;;6167475;23;20005;-82
2021/05/25 05:52:38;;;;;;;2.13;0.90;;;;;;;;;;6168352;23;20338;-82
2021/05/25 05:55:24;;;;;;;4.20;0.88;;;;;;;;;;6145048;23;20072;-80
2021/05/25 05:58:09;;;;;;;2.20;0.80;;;;;;;;;;6146389;23;20279;-80
2021/05/25 06:00:54;;;;;;;1.90;0.90;;;;;;;;;;6145968;23;20001;-80
2021/05/25 06:03:39;;;;;;;6.63;2.80;;;;;;;;;;6149023;23;20109;-78
2021/05/25 06:06:25;;;;;;;4.95;2.63;;;;;;;;;;6148085;23;20001;-79
2021/05/25 06:09:10;;;;;;;1.38;0.85;;;;;;;;;;6149632;23;20379;-79
2021/05/25 06:11:55;;;;;;;3.20;1.00;;;;;;;;;;6169373;23;20002;-79
2021/05/25 06:14:40;;;;;;;4.25;1.20;;;;;;;;;;6170730;23;20307;-78
2021/05/25 06:17:25;;;;;;;3.95;1.10;;;;;;;;;;6148109;23;20061;-80
2021/05/25 06:20:11;;;;;;;1.65;1.00;;;;;;;;;;6150273;23;20096;-80
2021/05/25 06:22:56;;;;;;;3.35;1.20;;;;;;;;;;6148967;23;20014;-79
2021/05/25 06:25:41;;;;;;;2.85;1.00;;;;;;;;;;6149715;23;20036;-80
2021/05/25 06:28:27;;;;;;;3.30;1.05;;;;;;;;;;6148409;23;20001;-81
2021/05/25 06:31:13;;;;;;;5.70;1.35;;;;;;;;;;6145880;23;20009;-83
2021/05/25 06:33:58;;;;;;;2.42;1.17;;;;;;;;;;6143161;23;20056;-88
2021/05/25 06:36:43;;;;;;;1.60;1.10;;;;;;;;;;6150840;23;20375;-80
2021/05/25 06:39:28;;;;;;;2.22;1.00;;;;;;;;;;6150748;23;20072;-81
2021/05/25 06:42:14;;;;;;;2.13;1.00;;;;;;;;;;6150952;23;20012;-84
2021/05/25 06:44:59;;;;;;;1.95;0.80;;;;;;;;;;6152013;23;20005;-84
2021/05/25 06:47:45;;;;;;;2.03;1.08;;;;;;;;;;6150994;23;20008;-84
2021/05/25 06:50:30;;;;;;;2.83;0.88;;;;;;;;;;6155092;23;20025;-84
2021/05/25 06:53:17;;;;;;;3.13;1.00;;;;;;;;;;6147514;23;20473;-82
2021/05/25 06:56:03;;;;;;;3.50;1.73;;;;;;;;;;6142323;23;20004;-80
2021/05/25 06:58:48;;;;;;;1.85;1.00;;;;;;;;;;6138642;23;20005;-79
2021/05/25 07:01:34;;;;;;;1.48;1.13;;;;;;;;;;6140935;23;20016;-80
2021/05/25 07:04:19;;;;;;;1.80;0.90;;;;;;;;;;6121179;23;20048;-82
2021/05/25 07:07:06;;;;;;;2.03;0.90;;;;;;;;;;6140321;23;20366;-80
2021/05/25 07:09:51;;;;;;;3.70;1.10;;;;;;;;;;6138001;23;20331;-79
2021/05/25 07:12:36;;;;;;;3.33;1.15;;;;;;;;;;6142575;23;20029;-80
2021/05/25 07:15:22;;;;;;;6.10;1.30;;;;;;;;;;6144716;23;20005;-80
2021/05/25 07:18:07;;;;;;;3.65;1.00;;;;;;;;;;6148509;23;20041;-79
2021/05/25 07:20:52;;;;;;;6.78;1.98;;;;;;;;;;6148820;23;20001;-79
2021/05/25 07:23:38;;;;;;;4.22;1.80;;;;;;;;;;6147918;23;20377;-79
2021/05/25 07:26:23;;;;;;;1.85;1.10;;;;;;;;;;6149125;23;20081;-81
2021/05/25 07:29:09;;;;;;;2.80;1.05;;;;;;;;;;6147575;23;20294;-80
2021/05/25 07:31:54;;;;;;;3.17;1.42;;;;;;;;;;6149184;23;20012;-80
2021/05/25 07:34:39;;;;;;;3.53;1.08;;;;;;;;;;6147971;23;20016;-79
2021/05/25 07:37:24;;;;;;;4.28;1.02;;;;;;;;;;6147943;23;20086;-79
2021/05/25 07:40:11;;;;;;;2.45;1.10;;;;;;;;;;6148032;23;20004;-80
2021/05/25 07:42:56;;;;;;;3.42;1.30;;;;;;;;;;6128503;23;20005;-79
2021/05/25 07:45:43;;;;;;;2.08;1.10;;;;;;;;;;6147592;23;19997;-80
2021/05/25 07:48:28;;;;;;;3.50;1.05;;;;;;;;;;6148945;23;20441;-79
2021/05/25 07:51:13;;;;;;;7.90;4.72;;;;;;;;;;6167782;23;20005;-79
2021/05/25 07:53:59;;;;;;;4.32;2.28;;;;;;;;;;6149000;23;20387;-79
2021/05/25 07:56:44;;;;;;;3.42;1.10;;;;;;;;;;6167731;23;20338;-79
2021/05/25 07:59:29;;;;;;;2.53;0.90;;;;;;;;;;6148362;23;20056;-79
2021/05/25 08:02:14;;;;;;;2.63;0.88;;;;;;;;;;6148498;23;20008;-79
2021/05/25 08:05:00;;;;;;;2.13;1.20;;;;;;;;;;6146522;23;20005;-80
2021/05/25 08:07:45;;;;;;;2.15;0.80;;;;;;;;;;6168093;23;20002;-80
2021/05/25 08:10:31;;;;;;;3.13;0.90;;;;;;;;;;6125907;23;20008;-80
2021/05/25 08:13:16;;;;;;;7.63;1.45;;;;;;;;;;6143831;23;20131;-79
2021/05/25 08:16:02;;;;;;;4.40;1.30;;;;;;;;;;6145208;23;20008;-79
2021/05/25 08:21:36;;;;;;;5.20;1.00;;;;;;;;;;6147279;23;20048;-79
2021/05/25 08:24:21;;;;;;;1.90;0.88;;;;;;;;;;6168596;23;20002;-79
2021/05/25 08:27:06;;;;;;;5.15;0.85;;;;;;;;;;6126343;23;20497;-79
2021/05/25 08:29:51;;;;;;;1.58;0.70;;;;;;;;;;6147405;23;20421;-80
2021/05/25 08:32:37;;;;;;;1.20;0.90;;;;;;;;;;6147742;23;19997;-80
2021/05/25 08:35:23;;;;;;;2.58;1.48;;;;;;;;;;6144726;23;20043;-79
2021/05/25 08:38:09;;;;;;;4.85;1.45;;;;;;;;;;6138353;23;20080;-80
2021/05/25 08:40:55;;;;;;;4.32;1.08;;;;;;;;;;6144223;23;19993;-79
2021/05/25 08:43:41;;;;;;;4.07;1.27;;;;;;;;;;6146571;23;20004;-79
2021/05/25 08:46:26;;;;;;;5.63;1.30;;;;;;;;;;6148515;23;20001;-79
2021/05/25 08:49:12;;;;;;;2.75;1.20;;;;;;;;;;6148107;23;20092;-79
2021/05/25 08:51:57;;;;;;;2.08;0.85;;;;;;;;;;6145798;23;20012;-79
2021/05/25 08:54:44;;;;;;;3.60;1.20;;;;;;;;;;6147023;23;20502;-79
2021/05/25 08:57:29;;;;;;;1.95;1.40;;;;;;;;;;6148195;23;20005;-81
2021/05/25 09:00:15;;;;;;;3.97;1.40;;;;;;;;;;6142612;23;20001;-78
2021/05/25 09:03:00;;;;;;;4.47;1.00;;;;;;;;;;6140401;23;20033;-81
2021/05/25 09:05:51;;;;;;;2.25;1.17;;;;;;;;;;6145881;23;20001;-81
2021/05/25 09:08:36;;;;;;;2.78;1.17;;;;;;;;;;6145999;23;20124;-80
2021/05/25 09:11:22;;;;;;;2.17;1.05;;;;;;;;;;6147617;23;20457;-80
2021/05/25 09:14:07;;;;;;;8.35;5.78;;;;;;;;;;6167237;23;20366;-80
2021/05/25 09:17:12;;;;;;;7.28;1.27;;;;;;;;;;6146840;23;20325;-80
2021/05/25 09:19:57;;;;;;;1.17;0.90;;;;;;;;;;6147461;23;20045;-82
2021/05/25 09:22:43;;;;;;;2.75;1.00;;;;;;;;;;6147927;23;20044;-81
2021/05/25 09:25:30;;;;;;;4.22;1.08;;;;;;;;;;6148383;23;19998;-82
2021/05/25 09:28:15;;;;;;;2.55;1.00;;;;;;;;;;6147311;23;20002;-81
2021/05/25 09:31:00;;;;;;;2.53;1.08;;;;;;;;;;6148059;23;20438;-81
2021/05/25 09:34:03;;;;;;;2.63;1.02;;;;;;;;;;6146365;23;20510;-81
2021/05/25 09:37:03;;;;;;;2.45;0.90;;;;;;;;;;6146813;23;19994;-81
2021/05/25 09:39:50;;;;;;;2.45;0.90;;;;;;;;;;6124174;23;20426;-80
2021/05/25 09:42:35;;;;;;;2.00;1.00;;;;;;;;;;6149825;23;20037;-81
2021/05/25 09:45:20;;;;;;;3.33;1.15;;;;;;;;;;6147527;23;20145;-79
2021/05/25 09:48:05;;;;;;;2.63;1.15;;;;;;;;;;6149364;23;20105;-79
2021/05/25 09:50:53;;;;;;;2.83;1.20;;;;;;;;;;6145952;23;20446;-80
2021/05/25 09:53:45;;;;;;;4.53;1.33;;;;;;;;;;6164630;23;20419;-81
2021/05/25 09:56:31;;;;;;;3.15;1.33;;;;;;;;;;6143957;23;20406;-80
2021/05/25 09:59:30;;;;;;;3.53;1.40;;;;;;;;;;6170317;23;20002;-81
2021/05/25 10:02:22;;;;;;;3.30;1.23;;;;;;;;;;6165128;23;20394;-82
2021/05/25 10:05:08;;;;;;;4.53;1.50;;;;;;;;;;6146503;23;20825;-82
2021/05/25 10:07:53;;;;;;;3.60;1.20;;;;;;;;;;6149234;23;20020;-82
2021/05/25 10:10:38;;;;;;;2.92;1.35;;;;;;;;;;6147965;23;20002;-82
2021/05/25 10:13:25;;;;;;;3.45;1.50;;;;;;;;;;6149037;23;20084;-84
2021/05/25 10:16:12;;;;;;;3.08;1.38;;;;;;;;;;6147760;23;20001;-84
2021/05/25 10:19:13;;;;;;;5.38;1.52;;;;;;;;;;6149670;23;20083;-83
2021/05/25 10:21:59;;;;;;;4.75;2.45;;;;;;;;;;6149322;23;19997;-83
2021/05/25 10:24:44;;;;;;;4.63;2.05;;;;;;;;;;6169876;23;19998;-82
2021/05/25 10:27:29;;;;;;;7.25;1.20;;;;;;;;;;6142836;23;20038;-84
2021/05/25 10:30:21;;;;;;;2.10;1.27;;;;;;;;;;6147128;23;20005;-83
2021/05/25 10:33:06;;;;;;;4.88;1.25;;;;;;;;;;6165946;23;20100;-83
2021/05/25 10:35:56;;;;;;;2.50;0.80;;;;;;;;;;6162574;23;20009;-83
2021/05/25 10:38:41;;;;;;;3.92;1.00;;;;;;;;;;6164059;23;19997;-82
2021/05/25 10:41:31;;;;;;;5.82;1.30;;;;;;;;;;6146273;23;20005;-82
2021/05/25 10:44:36;;;;;;;5.90;1.17;;;;;;;;;;6145561;23;20005;-84
2021/05/25 10:47:28;;;;;;;3.55;1.00;;;;;;;;;;6144160;23;20005;-81
2021/05/25 10:53:16;;;;;;;4.10;1.60;;;;;;;;;;6144532;23;20040;-83
2021/05/25 10:56:21;;;;;;;1.85;1.10;;;;;;;;;;6149208;23;20009;-83
2021/05/25 10:59:07;;;;;;;5.22;1.20;;;;;;;;;;6149754;23;20044;-84
2021/05/25 11:02:00;;;;;;;7.07;2.10;;;;;;;;;;6147855;23;20044;-82
2021/05/25 11:04:45;;;;;;;5.50;1.20;;;;;;;;;;6148459;23;20033;-83
2021/05/25 11:07:37;;;;;;;5.38;1.98;;;;;;;;;;6147386;23;20002;-81
2021/05/25 11:10:28;;;;;;;4.32;1.27;;;;;;;;;;6148721;23;20009;-80
2021/05/25 11:13:17;;;;;;;5.88;1.27;;;;;;;;;;6146817;23;20080;-81
2021/05/25 11:16:20;;;;;;;8.00;1.50;;;;;;;;;;6149818;23;20354;-81
2021/05/25 11:24:53;;;;;;;5.10;1.10;;;;;;;;;;6147142;23;20102;-81
2021/05/25 11:27:43;;;;;;;4.85;1.45;;;;;;;;;;6168215;23;20001;-81
2021/05/25 11:30:29;;;;;;;2.08;1.20;;;;;;;;;;6146905;23;20006;-80
2021/05/25 11:33:14;;;;;;;2.85;1.70;;;;;;;;;;6156019;23;20067;-80
2021/05/25 11:36:00;;;;;;;4.53;1.02;;;;;;;;;;6164856;23;20002;-79
2021/05/25 11:38:48;;;;;;;1.73;1.10;;;;;;;;;;6146437;23;20008;-81
2021/05/25 11:41:33;;;;;;;1.60;0.80;;;;;;;;;;6167422;23;20005;-81
2021/05/25 11:44:21;;;;;;;1.73;1.00;;;;;;;;;;6145235;23;20005;-80
2021/05/25 11:47:07;;;;;;;1.88;1.08;;;;;;;;;;6137740;23;20059;-82
2021/05/25 11:49:52;;;;;;;2.28;1.02;;;;;;;;;;6145464;23;20075;-80
2021/05/25 11:52:39;;;;;;;2.33;0.90;;;;;;;;;;6147147;23;20001;-80
2021/05/25 11:55:27;;;;;;;5.22;1.38;;;;;;;;;;6165722;23;20117;-79
2021/05/25 11:58:12;;;;;;;4.82;1.00;;;;;;;;;;6144999;23;20001;-80
2021/05/25 12:00:58;;;;;;;3.80;1.40;;;;;;;;;;6138787;23;20029;-80
2021/05/25 12:03:43;;;;;;;5.97;1.20;;;;;;;;;;6145839;23;19998;-80
2021/05/25 12:06:28;;;;;;;5.43;1.23;;;;;;;;;;6145882;23;20029;-80
2021/05/25 12:09:14;;;;;;;3.28;0.90;;;;;;;;;;6164564;23;19993;-79
2021/05/25 12:12:08;;;;;;;7.28;1.42;;;;;;;;;;6147156;23;20005;-80
2021/05/25 12:14:53;;;;;;;4.50;1.00;;;;;;;;;;6146619;23;20077;-80
2021/05/25 12:17:39;;;;;;;4.53;1.30;;;;;;;;;;6145612;23;20084;-81
2021/05/25 12:20:49;;;;;;;2.10;1.00;;;;;;;;;;6094949;23;20383;-79
2021/05/25 12:23:34;;;;;;;;;;;;;;;;;;6097456;23;20006;-80
2021/05/25 12:26:19;;;;;;;2.72;1.13;;;;;;;;;;6115711;23;20302;-80
2021/05/25 12:29:04;;;;;;;6.32;1.48;;;;;;;;;;6095844;23;20021;-80
2021/05/25 12:31:50;;;;;;;4.22;1.42;;;;;;;;;;6098226;23;20382;-80
2021/05/25 12:34:35;;;;;;;4.80;2.40;;;;;;;;;;6074729;23;19998;-78
2021/05/25 12:37:20;;;;;;;5.60;1.13;;;;;;;;;;6096635;23;20021;-78
2021/05/25 12:40:07;;;;;;;9.57;1.25;;;;;;;;;;6096483;23;20008;-78
2021/05/25 12:42:52;;;;;;;3.35;1.33;;;;;;;;;;6097266;23;20343;-78
2021/05/25 12:45:37;;;;;;;1.80;0.75;;;;;;;;;;6097449;23;20064;-79
2021/05/25 12:48:42;;;;;;;1.83;1.05;;;;;;;;;;6094204;23;20089;-79
2021/05/25 12:51:30;;;;;;;1.30;0.93;;;;;;;;;;6095642;23;20002;-79
2021/05/25 12:54:18;;;;;;;3.83;1.20;;;;;;;;;;6098219;23;20016;-80
2021/05/25 12:57:03;;;;;;;4.05;1.63;;;;;;;;;;6096901;23;19998;-81
2021/05/25 13:00:03;;;;;;;4.53;1.20;;;;;;;;;;6099105;23;20001;-81
2021/05/25 13:02:50;;;;;;;3.55;1.20;;;;;;;;;;6097101;23;20005;-79
2021/05/25 13:05:38;;;;;;;2.08;0.90;;;;;;;;;;6097504;23;20057;-80
2021/05/25 13:08:25;;;;;;;5.40;1.00;;;;;;;;;;6097189;23;20005;-79
2021/05/25 13:11:10;;;;;;;3.60;1.33;;;;;;;;;;6118755;23;20024;-81
2021/05/25 13:13:59;;;;;;;3.25;1.10;;;;;;;;;;6098962;23;20111;-80
2021/05/25 13:16:54;;;;;;;2.38;1.00;;;;;;;;;;6100496;23;20002;-80
2021/05/25 13:19:39;;;;;;;6.70;2.60;;;;;;;;;;6139243;23;20474;-80
2021/05/25 13:22:25;;;;;;;4.80;1.30;;;;;;;;;;6168784;23;20005;-80
2021/05/25 13:25:11;;;;;;;1.15;0.80;;;;;;;;;;6150595;23;20006;-80
2021/05/25 13:27:57;;;;;;;3.90;1.73;;;;;;;;;;6148310;23;20008;-80
2021/05/25 13:30:44;;;;;;;3.85;1.30;;;;;;;;;;6150068;23;20307;-79
2021/05/25 13:33:29;;;;;;;4.90;1.42;;;;;;;;;;6148793;23;20013;-79
2021/05/25 13:36:15;;;;;;;4.38;1.00;;;;;;;;;;6149849;23;20005;-79
2021/05/25 13:39:00;;;;;;;3.88;1.23;;;;;;;;;;6148691;23;20442;-80
2021/05/25 13:41:49;;;;;;;2.70;1.00;;;;;;;;;;6150231;23;20676;-80
2021/05/25 13:44:34;;;;;;;2.90;1.00;;;;;;;;;;6148379;23;20000;-79
2021/05/25 13:47:20;;;;;;;3.28;0.88;;;;;;;;;;6151741;23;20005;-79
2021/05/25 13:50:22;;;;;;;10.75;1.20;;;;;;;;;;6169037;23;19994;-80
2021/05/25 13:53:08;;;;;;;3.97;2.05;;;;;;;;;;6149925;23;20284;-79
2021/05/25 13:55:54;;;;;;;4.72;1.23;;;;;;;;;;6149522;23;20024;-79
2021/05/25 13:58:40;;;;;;;4.10;1.10;;;;;;;;;;6148744;23;20009;-78
2021/05/25 14:01:31;;;;;;;2.85;0.90;;;;;;;;;;6150185;23;20008;-80
2021/05/25 14:04:18;;;;;;;2.63;1.25;;;;;;;;;;6148770;23;20051;-80
2021/05/25 14:07:09;;;;;;;4.10;1.13;;;;;;;;;;6148273;23;20020;-81
2021/05/25 14:09:54;;;;;;;4.10;1.08;;;;;;;;;;6148718;23;20091;-80
2021/05/25 14:12:39;;;;;;;5.80;1.40;;;;;;;;;;6128761;23;20080;-82
2021/05/25 14:15:25;;;;;;;1.98;0.90;;;;;;;;;;6148829;23;20009;-83
2021/05/25 14:18:10;;;;;;;3.97;1.58;;;;;;;;;;6149898;23;20013;-81
2021/05/25 14:20:55;;;;;;;5.88;1.27;;;;;;;;;;6148665;23;20488;-81
2021/05/25 14:23:41;;;;;;;5.00;1.27;;;;;;;;;;6149578;23;20025;-81
2021/05/25 14:26:26;;;;;;;4.63;1.30;;;;;;;;;;6141582;23;19997;-83
2021/05/25 14:29:12;;;;;;;2.28;1.20;;;;;;;;;;6150048;23;20076;-83
2021/05/25 14:31:57;;;;;;;4.32;1.15;;;;;;;;;;6147979;23;20012;-81
2021/05/25 14:34:42;;;;;;;2.30;1.10;;;;;;;;;;6149055;23;20100;-82
2021/05/25 14:37:28;;;;;;;3.45;1.30;;;;;;;;;;6149170;23;19998;-79
2021/05/25 14:40:13;;;;;;;3.58;0.77;;;;;;;;;;6148361;23;20005;-81
2021/05/25 14:42:59;;;;;;;2.95;1.15;;;;;;;;;;6148778;23;20007;-78
2021/05/25 14:45:45;;;;;;;6.00;1.45;;;;;;;;;;6148157;23;20060;-79
2021/05/25 14:48:30;;;;;;;2.67;0.95;;;;;;;;;;6149972;23;20047;-79
2021/05/25 14:51:15;;;;;;;5.90;1.33;;;;;;;;;;6147500;23;20001;-79
2021/05/25 14:54:02;;;;;;;3.75;1.02;;;;;;;;;;6149401;23;20078;-79
2021/05/25 14:56:48;;;;;;;1.05;0.82;;;;;;;;;;6147619;23;20083;-79
2021/05/25 14:59:34;;;;;;;3.30;1.30;;;;;;;;;;6149118;23;20029;-80
2021/05/25 15:02:22;;;;;;;1.65;0.93;;;;;;;;;;6169033;23;20009;-79
2021/05/25 15:05:14;;;;;;;3.35;1.50;;;;;;;;;;6149693;23;20048;-80
2021/05/25 15:08:03;;;;;;;5.57;1.10;;;;;;;;;;6126683;23;20446;-79
2021/05/25 15:10:48;;;;;;;4.17;1.80;;;;;;;;;;6148797;23;20024;-80
2021/05/25 15:13:33;;;;;;;4.00;1.33;;;;;;;;;;6147972;23;20287;-80
2021/05/25 15:16:19;;;;;;;2.80;1.08;;;;;;;;;;6149156;23;20303;-80
2021/05/25 15:19:04;;;;;;;2.85;0.98;;;;;;;;;;6148415;23;20070;-80
2021/05/25 15:21:49;;;;;;;2.72;1.25;;;;;;;;;;6148487;23;20175;-80
2021/05/25 15:24:35;;;;;;;3.67;1.63;;;;;;;;;;6149028;23;19993;-87
2021/05/25 15:27:20;;;;;;;3.90;1.38;;;;;;;;;;6146376;23;20084;-85
2021/05/25 15:30:07;;;;;;;2.58;1.10;;;;;;;;;;6150411;23;20627;-86
2021/05/25 15:32:52;;;;;;;3.83;1.08;;;;;;;;;;6148433;23;20113;-86
2021/05/25 15:35:37;;;;;;;3.35;1.10;;;;;;;;;;6150099;23;20001;-85
2021/05/25 15:38:23;;;;;;;2.67;1.30;;;;;;;;;;6148135;23;20435;-86
2021/05/25 15:41:08;;;;;;;9.55;1.00;;;;;;;;;;6152551;23;20008;-85
2021/05/25 15:43:55;;;;;;;3.35;1.20;;;;;;;;;;6150674;23;20076;-85
2021/05/25 15:46:40;;;;;;;3.65;1.20;;;;;;;;;;6151572;23;19998;-84
2021/05/25 15:49:25;;;;;;;4.90;1.90;;;;;;;;;;6150381;23;19994;-85
2021/05/25 15:52:10;;;;;;;1.55;0.88;;;;;;;;;;6149402;23;20383;-84
2021/05/25 15:54:56;;;;;;;3.72;1.20;;;;;;;;;;6152518;23;20314;-86
2021/05/25 15:57:41;;;;;;;8.27;1.75;;;;;;;;;;6173326;23;19997;-84
2021/05/25 16:00:29;;;;;;;2.47;1.30;;;;;;;;;;6152472;23;20007;-84
2021/05/25 16:03:14;;;;;;;3.08;1.38;;;;;;;;;;6152970;23;20033;-84
2021/05/25 16:06:00;;;;;;;5.25;1.30;;;;;;;;;;6172975;23;20009;-86
2021/05/25 16:08:45;;;;;;;4.28;1.30;;;;;;;;;;6150156;23;20430;-86
2021/05/25 16:11:31;;;;;;;3.95;1.35;;;;;;;;;;6151200;23;20509;-85
2021/05/25 16:14:17;;;;;;;3.10;1.20;;;;;;;;;;6172890;23;20069;-85
2021/05/25 16:17:03;;;;;;;6.80;1.50;;;;;;;;;;6151514;23;19993;-86
2021/05/25 16:19:48;;;;;;;3.03;1.40;;;;;;;;;;6169985;23;20017;-85
2021/05/25 16:22:33;;;;;;;2.60;1.10;;;;;;;;;;6150575;23;20080;-85
2021/05/25 16:25:20;;;;;;;4.35;1.63;;;;;;;;;;6149209;23;19997;-86
2021/05/25 16:28:09;;;;;;;3.22;0.90;;;;;;;;;;6150508;23;20001;-86
2021/05/25 16:30:54;;;;;;;2.00;0.90;;;;;;;;;;6171084;23;20618;-86
2021/05/25 16:33:40;;;;;;;4.88;1.33;;;;;;;;;;6151559;23;20012;-84
2021/05/25 16:36:25;;;;;;;5.20;1.25;;;;;;;;;;6151172;23;20056;-85
2021/05/25 16:39:10;;;;;;;2.38;1.23;;;;;;;;;;6172015;23;20020;-87
2021/05/25 16:41:56;;;;;;;2.45;1.10;;;;;;;;;;6150813;23;20101;-85
2021/05/25 16:44:41;;;;;;;3.92;1.48;;;;;;;;;;6172607;23;20369;-85
2021/05/25 16:47:26;;;;;;;6.63;1.58;;;;;;;;;;6151452;23;20009;-85
2021/05/25 16:50:13;;;;;;;3.42;1.30;;;;;;;;;;6151601;23;19998;-84